Woodside Park, United Kingdom
Current Conditions -  °F | °C
As of 4:50 AM on Sunday 21 Dec 2014 (Local Time) from EGWU Reporting Station
Broken Clouds Broken Clouds  
Wind Chill: 39°   Ceiling: 2300
Heat Index: 45°   Visibility: 6mi
Dew Point: 41°   Wind: 12mph
Humidity: 87%   Direction: 240°WSW
Pressure: 30.39"   Gusts: NA
Location:  51.61°N, 0.17°W
Report Text: EGWU 210450Z AUTO 24010KT 9999 // FEW015/// BKN023/// 07/05 Q1029
Loading
Personal Weather Stations






























Interactive Weather Map New forecast layout! Learn more

10-Day Weather Forecast

Advertisements
Track Severe Weather on mobile